St Gallen Altenrhein Airport

LSZR · Saint Gallen, 瑞士

罗盘
风向 的 风向 的 风向 到 风向 240° St Gallen Altenrhein Airport 10/28
风: 8 kt, 3 beaufort

6 kt

5 kt
改变
0 ft 1.000 2.000 3.000 4.000 5.000
Cloud Cloud
FEW 1.500
Cloud Cloud Cloud Cloud
SCT 4.400
Cloud Cloud Cloud Cloud Cloud Cloud
BKN 5.000
METAR LSZR 191420Z 24008KT 210V310 9999 -RA FEW015 SCT044 BKN050 06/02 Q1014 RMK L

METAR St Gallen Altenrhein Airport - LSZR/ACH

St Gallen Altenrhein Airport是,瑞士中的中型机场。 该机场位于纬度47,48510和经度9,56029。 该机场有一条跑道: 10/28. 本场的ICAO机场代码为LSZR。 该机场的IATA代码为ACH。 机场在Switzerland FIR中。

该航空气象观测是针对St Gallen Altenrhein Airport在2024年4月19日 16:20, 当地时间进行的。

机场观察

风向为240°,速度为8 kt。 风向在210°和310°之间变化。

可见度为10 km 或者更多。

有几云在1.500 ft的高度, 疏云,零星散落的云朵在4.400 ft的高度 和 碎云在5.000 ft的高度。 破损或更高的上限为5.000 ft。

当前天气为光 雨。 温度为6 °C,阵风为2 °C。 露点为2 °C,相对湿度为76%。 海平面上的气压为1014 hPa (QNH)。

白天

今天,太阳从06:24升起,在20:17降落。 这适用于St Gallen Altenrhein Airport,世界夏令时可能有所不同。 当地时间与世界标准时间之间的时差为+2 小时。 夏令时目前正在进行中。

公司介绍

在这个机场,你可以找到飞行俱乐部 和 飞行学校。 这个机场上的公司有Fliegerschule Altenrhein 和 Aviatis Fto。

体会

到Vliegles.nl去找飞行课程,跳伞和其他飞行体验。 浏览页面,了解St Gallen Altenrhein Airport附近所有可用的活动。 你也可以使用搜索功能来寻找你所在地附近的特定飞行课程、跳伞或其他飞行体验。

跑道

Id 标题 侧风 逆风 侧风 %
10/28 099°-279° 5 kt 6 kt 63 %

逆风成分最大的方向会被突出显示,并用于横风计算。 这并不一定意味着这个方向在使用。

乌云

1.500 ft FEW 几云
4.400 ft SCT 疏云,零星散落的云朵
5.000 ft BKN 碎云

温度 & 天气

天气 光 雨
温度 6 °C
露点 2 °C
相对湿度 76%
风寒 2 °C
Kp-index 4 (0-9)

评论

L

白天

日出
06:24
中午
13:20
日落
20:17 (3:23)

小工具

你想在你的网站上有一个关于St Gallen Altenrhein Airport的当前航空天气(METAR)的小部件吗?

显示HTML代码
报告变更